createdAt,value
2016-07-03T00:00:43.315Z,11.57
2016-07-03T00:01:43.324Z,11.52
2016-07-03T00:02:43.311Z,11.49
2016-07-03T00:03:43.312Z,11.61
2016-07-03T00:04:43.306Z,11.58
2016-07-03T00:05:43.306Z,11.58
2016-07-03T00:06:43.295Z,11.57
2016-07-03T00:07:43.295Z,11.58
2016-07-03T00:08:43.392Z,11.61
2016-07-03T00:09:43.284Z,11.55
2016-07-03T00:10:43.288Z,11.64
2016-07-03T00:11:43.267Z,11.64
2016-07-03T00:12:43.282Z,11.72
2016-07-03T00:13:43.269Z,11.76
2016-07-03T00:14:43.258Z,11.73
2016-07-03T00:15:43.865Z,11.76
2016-07-03T00:16:43.243Z,11.72
2016-07-03T00:17:43.244Z,11.79
2016-07-03T00:18:43.243Z,11.82
2016-07-03T00:19:43.241Z,11.79
2016-07-03T00:20:43.233Z,11.85
2016-07-03T00:21:43.240Z,11.86
2016-07-03T00:22:43.228Z,11.88
2016-07-03T00:23:43.223Z,11.95
2016-07-03T00:24:43.224Z,11.95
2016-07-03T00:25:43.213Z,12.01
2016-07-03T00:26:43.198Z,12.09
2016-07-03T00:27:43.197Z,12.04
2016-07-03T00:28:43.198Z,12.04
2016-07-03T00:29:44.449Z,12.13
2016-07-03T00:30:43.348Z,12.16
2016-07-03T00:31:43.997Z,12.14
2016-07-03T00:32:43.798Z,12.2
2016-07-03T00:33:43.181Z,12.28
2016-07-03T00:34:43.182Z,12.31
2016-07-03T00:35:43.523Z,12.27
2016-07-03T00:36:43.170Z,12.29
2016-07-03T00:37:43.166Z,12.37
2016-07-03T00:38:43.166Z,12.45
2016-07-03T00:39:43.674Z,12.37
2016-07-03T00:40:43.554Z,12.5
2016-07-03T00:41:43.647Z,12.47
2016-07-03T00:42:43.155Z,12.52
2016-07-03T00:43:43.148Z,12.53
2016-07-03T00:44:43.137Z,12.65
2016-07-03T00:45:43.134Z,12.67
2016-07-03T00:46:43.183Z,12.68
2016-07-03T00:47:43.129Z,12.62
2016-07-03T00:48:43.127Z,12.64
2016-07-03T00:49:43.120Z,12.75
2016-07-03T00:50:43.118Z,12.75
2016-07-03T00:51:43.117Z,12.74
2016-07-03T00:52:43.116Z,12.74
2016-07-03T00:53:43.106Z,12.75
2016-07-03T00:54:43.092Z,12.83
2016-07-03T00:55:43.098Z,12.86
2016-07-03T00:56:43.731Z,12.9
2016-07-03T00:57:44.368Z,12.97
2016-07-03T00:58:43.446Z,12.96
2016-07-03T00:59:43.090Z,12.97
2016-07-03T01:00:43.436Z,13.01
2016-07-03T01:01:43.757Z,13.05
2016-07-03T01:02:43.084Z,13.1
2016-07-03T01:03:43.067Z,13.12
2016-07-03T01:04:43.064Z,13.19
2016-07-03T01:06:43.660Z,13.17
2016-07-03T01:07:44.630Z,13.14
2016-07-03T01:08:44.231Z,13.25
2016-07-03T01:09:43.051Z,13.17
2016-07-03T01:10:43.406Z,13.14
2016-07-03T01:11:43.092Z,13.17
2016-07-03T01:12:43.024Z,13.17
2016-07-03T01:13:43.115Z,13.19
2016-07-03T01:14:43.017Z,13.26
2016-07-03T01:15:43.012Z,13.14
2016-07-03T01:16:43.023Z,13.14
2016-07-03T01:17:43.018Z,13.17
2016-07-03T01:18:43.016Z,13.17
2016-07-03T01:19:43.014Z,13.14
2016-07-03T01:20:43.006Z,13.08
2016-07-03T01:21:43.007Z,13.08
2016-07-03T01:22:43.002Z,13.03
2016-07-03T01:23:42.996Z,13.01
2016-07-03T01:24:42.998Z,12.96
2016-07-03T01:25:42.990Z,12.85
2016-07-03T01:26:42.982Z,12.79
2016-07-03T01:27:42.979Z,12.74
2016-07-03T01:28:42.970Z,12.78
2016-07-03T01:29:42.980Z,12.74
2016-07-03T01:30:42.966Z,12.72
2016-07-03T01:31:42.968Z,12.71
2016-07-03T01:32:42.966Z,12.68
2016-07-03T01:33:42.965Z,12.53
2016-07-03T01:34:42.955Z,12.53
2016-07-03T01:35:42.957Z,12.49
2016-07-03T01:36:42.937Z,12.45
2016-07-03T01:37:42.947Z,12.49
2016-07-03T01:38:42.943Z,12.31
2016-07-03T01:39:42.933Z,12.42
2016-07-03T01:40:42.935Z,12.31
2016-07-03T01:41:42.942Z,12.29
2016-07-03T01:42:42.944Z,12.27
2016-07-03T01:43:42.929Z,12.16
2016-07-03T01:44:42.917Z,12.16
2016-07-03T01:45:42.917Z,12.04
2016-07-03T01:46:42.918Z,12.14
2016-07-03T01:47:42.908Z,12.07
2016-07-03T01:48:57.789Z,12.12
2016-07-03T01:49:43.089Z,11.98
2016-07-03T01:50:43.341Z,11.88
2016-07-03T01:51:43.588Z,11.91
2016-07-03T01:52:42.887Z,11.88
2016-07-03T01:53:42.881Z,11.86
2016-07-03T01:54:43.075Z,11.73
2016-07-03T01:55:42.869Z,11.73
2016-07-03T01:56:42.863Z,11.76
2016-07-03T01:57:44.068Z,11.62
2016-07-03T01:58:44.406Z,11.52
2016-07-03T01:59:43.406Z,11.58
2016-07-03T02:00:43.358Z,11.55
2016-07-03T02:01:42.853Z,11.52
2016-07-03T02:02:42.852Z,11.4
2016-07-03T02:03:42.848Z,11.42
2016-07-03T02:04:42.843Z,11.43
2016-07-03T02:05:42.894Z,11.43
2016-07-03T02:06:42.827Z,11.39
2016-07-03T02:07:42.819Z,11.24
2016-07-03T02:08:42.821Z,11.28
2016-07-03T02:09:42.817Z,11.28
2016-07-03T02:10:42.820Z,11.22
2016-07-03T02:11:42.810Z,11.32
2016-07-03T02:12:42.806Z,11.25
2016-07-03T02:13:42.796Z,11.25
2016-07-03T02:15:42.822Z,11.25
2016-07-03T02:16:44.623Z,11.06
2016-07-03T02:17:44.602Z,11.03
2016-07-03T02:18:43.417Z,11.07
2016-07-03T02:19:42.766Z,11.04
2016-07-03T02:20:42.761Z,11.07
2016-07-03T02:21:42.768Z,11.03
2016-07-03T02:22:42.750Z,11.02
2016-07-03T02:24:43.301Z,11
2016-07-03T02:25:44.178Z,11
2016-07-03T02:26:42.744Z,10.91
2016-07-03T02:27:42.733Z,10.92
2016-07-03T02:28:44.171Z,10.89
2016-07-03T02:29:42.734Z,10.92
2016-07-03T02:30:42.734Z,10.86
2016-07-03T02:31:42.722Z,10.84
2016-07-03T02:32:42.701Z,10.89
2016-07-03T02:33:42.710Z,10.85
2016-07-03T02:34:42.698Z,10.82
2016-07-03T02:35:42.701Z,10.73
2016-07-03T02:36:42.694Z,10.73
2016-07-03T02:37:42.694Z,10.74
2016-07-03T02:38:42.682Z,10.73
2016-07-03T02:39:42.686Z,10.68
2016-07-03T02:40:42.678Z,10.76
2016-07-03T02:41:42.670Z,10.71
2016-07-03T02:42:42.674Z,10.71
2016-07-03T02:43:42.668Z,10.7
2016-07-03T02:44:42.660Z,10.63
2016-07-03T02:45:42.659Z,10.64
2016-07-03T02:46:42.653Z,10.63
2016-07-03T02:47:42.645Z,10.64
2016-07-03T02:48:42.642Z,10.63
2016-07-03T02:49:42.632Z,10.53
2016-07-03T02:50:42.631Z,10.59
2016-07-03T02:51:42.629Z,10.56
2016-07-03T02:52:42.619Z,10.55
2016-07-03T02:53:42.615Z,10.51
2016-07-03T02:54:42.616Z,10.55
2016-07-03T02:55:42.609Z,10.41
2016-07-03T02:56:42.604Z,10.44
2016-07-03T02:57:42.593Z,10.48
2016-07-03T02:58:42.585Z,10.45
2016-07-03T02:59:42.581Z,10.44
2016-07-03T03:00:42.586Z,10.41
2016-07-03T03:01:42.576Z,10.48
2016-07-03T03:02:42.572Z,10.45
2016-07-03T03:03:42.554Z,10.45
2016-07-03T03:04:42.556Z,10.48
2016-07-03T03:05:42.550Z,10.45
2016-07-03T03:07:42.833Z,10.47
2016-07-03T03:08:42.990Z,10.45
2016-07-03T03:09:42.587Z,10.42
2016-07-03T03:10:43.774Z,10.44
2016-07-03T03:11:42.519Z,10.45
2016-07-03T03:12:42.516Z,10.48
2016-07-03T03:13:42.515Z,10.41
2016-07-03T03:14:42.513Z,10.47
2016-07-03T03:15:42.597Z,10.47
2016-07-03T03:16:42.839Z,10.47
2016-07-03T03:17:43.344Z,10.42
2016-07-03T03:18:57.383Z,10.47
2016-07-03T03:19:43.223Z,10.47
2016-07-03T03:20:42.474Z,10.47
2016-07-03T03:21:42.469Z,10.48
2016-07-03T03:22:42.467Z,10.45
2016-07-03T03:23:42.460Z,10.4
2016-07-03T03:24:42.457Z,10.55
2016-07-03T03:25:42.452Z,10.59
2016-07-03T03:26:42.448Z,10.56
2016-07-03T03:27:42.430Z,10.61
2016-07-03T03:28:42.433Z,10.76
2016-07-03T03:29:42.434Z,10.94
2016-07-03T03:30:42.430Z,11.15
2016-07-03T03:31:42.421Z,11.24
2016-07-03T03:32:42.419Z,11.42
2016-07-03T03:33:44.139Z,11.55
2016-07-03T03:34:43.605Z,11.85
2016-07-03T03:35:42.782Z,12.09
2016-07-03T03:36:42.723Z,12.23
2016-07-03T03:37:42.432Z,12.52
2016-07-03T03:38:42.383Z,12.68
2016-07-03T03:39:42.379Z,12.9
2016-07-03T03:40:42.372Z,13.15
2016-07-03T03:41:42.368Z,13.44
2016-07-03T03:42:44.210Z,13.69
2016-07-03T03:43:43.991Z,14
2016-07-03T03:44:42.482Z,14.27
2016-07-03T03:45:44.063Z,14.37
2016-07-03T03:46:42.367Z,14.73
2016-07-03T03:47:42.366Z,14.86
2016-07-03T03:48:42.359Z,15.21
2016-07-03T03:49:42.562Z,15.5
2016-07-03T03:50:42.369Z,15.68
2016-07-03T03:51:42.347Z,15.83
2016-07-03T03:52:42.355Z,16.05
2016-07-03T03:53:42.344Z,16.31
2016-07-03T03:54:42.344Z,16.61
2016-07-03T03:55:42.342Z,16.93
2016-07-03T03:56:42.347Z,17.18
2016-07-03T03:57:42.351Z,17.4
2016-07-03T03:58:42.343Z,17.72
2016-07-03T03:59:42.347Z,18
2016-07-03T04:00:42.339Z,18.23
2016-07-03T04:01:42.338Z,18.44
2016-07-03T04:02:42.342Z,18.8
2016-07-03T04:03:42.342Z,19.02
2016-07-03T04:04:42.342Z,19.37
2016-07-03T04:05:42.342Z,19.68
2016-07-03T04:06:42.344Z,19.92
2016-07-03T04:07:42.346Z,20.13
2016-07-03T04:08:42.343Z,20.33
2016-07-03T04:09:42.347Z,20.57
2016-07-03T04:10:42.361Z,20.8
2016-07-03T04:11:42.355Z,21.09
2016-07-03T04:12:42.362Z,21.21
2016-07-03T04:13:42.356Z,21.47
2016-07-03T04:14:42.369Z,21.65
2016-07-03T04:15:42.364Z,21.96
2016-07-03T04:16:42.367Z,22.2
2016-07-03T04:17:42.382Z,22.4
2016-07-03T04:18:42.378Z,22.58
2016-07-03T04:19:42.387Z,22.88
2016-07-03T04:20:42.390Z,23.01
2016-07-03T04:21:42.388Z,23.23
2016-07-03T04:22:42.398Z,23.57
2016-07-03T04:23:42.402Z,23.76
2016-07-03T04:24:42.506Z,23.98
2016-07-03T04:25:43.123Z,24.15
2016-07-03T04:26:42.519Z,24.32
2016-07-03T04:27:42.928Z,24.52
2016-07-03T04:28:42.429Z,24.64
2016-07-03T04:29:42.440Z,24.9
2016-07-03T04:30:42.443Z,24.95
2016-07-03T04:31:42.446Z,25.15
2016-07-03T04:32:42.459Z,25.36
2016-07-03T04:33:43.267Z,25.51
2016-07-03T04:34:43.176Z,25.54
2016-07-03T04:35:42.484Z,25.73
2016-07-03T04:36:43.185Z,25.85
2016-07-03T04:37:57.391Z,26.05
2016-07-03T04:38:43.400Z,26.26
2016-07-03T04:39:42.507Z,26.43
2016-07-03T04:40:42.514Z,26.69
2016-07-03T04:41:42.532Z,26.82
2016-07-03T04:42:42.533Z,27.03
2016-07-03T04:43:42.542Z,27.03
2016-07-03T04:44:42.552Z,27.28
2016-07-03T04:45:42.562Z,27.47
2016-07-03T04:46:42.569Z,27.66
2016-07-03T04:47:42.581Z,27.77
2016-07-03T04:48:42.592Z,27.82
2016-07-03T04:49:42.595Z,28.04
2016-07-03T04:50:42.610Z,28.25
2016-07-03T04:51:44.111Z,28.4
2016-07-03T04:52:43.422Z,28.49
2016-07-03T04:53:42.636Z,28.67
2016-07-03T04:54:44.433Z,28.76
2016-07-03T04:55:42.654Z,28.96
2016-07-03T04:56:42.662Z,29.02
2016-07-03T04:57:42.670Z,29.14
2016-07-03T04:58:42.731Z,29.33
2016-07-03T04:59:42.691Z,29.52
2016-07-03T05:01:45.805Z,29.82
2016-07-03T05:02:43.211Z,29.97
2016-07-03T05:03:42.738Z,30.15
2016-07-03T05:04:43.820Z,30.04
2016-07-03T05:05:42.757Z,30.23
2016-07-03T05:06:42.763Z,30.31
2016-07-03T05:07:43.020Z,30.47
2016-07-03T05:08:42.774Z,30.46
2016-07-03T05:09:42.796Z,30.55
2016-07-03T05:10:42.799Z,30.72
2016-07-03T05:11:42.816Z,30.77
2016-07-03T05:12:42.821Z,30.95
2016-07-03T05:13:42.840Z,30.98
2016-07-03T05:14:42.844Z,31.09
2016-07-03T05:15:42.852Z,31.21
2016-07-03T05:16:42.870Z,31.32
2016-07-03T05:17:42.885Z,31.36
2016-07-03T05:18:42.888Z,31.54
2016-07-03T05:19:42.904Z,31.68
2016-07-03T05:20:42.923Z,31.76
2016-07-03T05:21:42.934Z,31.88
2016-07-03T05:22:42.932Z,31.84
2016-07-03T05:23:42.962Z,31.93
2016-07-03T05:24:42.974Z,32.04
2016-07-03T05:25:42.980Z,32.18
2016-07-03T05:26:42.994Z,32.28
2016-07-03T05:27:43.016Z,32.29
2016-07-03T05:28:43.017Z,32.32
2016-07-03T05:29:43.038Z,32.32
2016-07-03T05:30:43.041Z,32.28
2016-07-03T05:31:43.059Z,32.45
2016-07-03T05:32:43.068Z,32.62
2016-07-03T05:33:43.087Z,32.82
2016-07-03T05:34:43.096Z,32.89
2016-07-03T05:35:43.110Z,32.99
2016-07-03T05:36:43.126Z,33.11
2016-07-03T05:37:43.133Z,33.16
2016-07-03T05:38:43.139Z,33.32
2016-07-03T05:39:43.156Z,33.47
2016-07-03T05:40:43.178Z,33.5
2016-07-03T05:41:43.177Z,33.59
2016-07-03T05:42:43.199Z,33.68
2016-07-03T05:43:43.918Z,33.72
2016-07-03T05:44:44.884Z,33.73
2016-07-03T05:45:43.591Z,33.81
2016-07-03T05:46:44.314Z,33.78
2016-07-03T05:47:44.221Z,33.88
2016-07-03T05:48:43.535Z,33.88
2016-07-03T05:49:43.301Z,33.94
2016-07-03T05:50:43.312Z,33.94
2016-07-03T05:51:43.326Z,34
2016-07-03T05:52:43.840Z,34.03
2016-07-03T05:53:44.010Z,34.08
2016-07-03T05:54:44.470Z,34.21
2016-07-03T05:55:43.735Z,34.22
2016-07-03T05:56:44.200Z,34.35
2016-07-03T05:57:43.621Z,34.3
2016-07-03T05:58:43.432Z,34.37
2016-07-03T05:59:43.438Z,34.37
2016-07-03T06:00:43.465Z,34.42
2016-07-03T06:01:43.470Z,34.52
2016-07-03T06:02:43.496Z,34.42
2016-07-03T06:03:43.502Z,34.54
2016-07-03T06:04:43.526Z,34.52
2016-07-03T06:05:43.540Z,34.4
2016-07-03T06:06:43.550Z,34.37
2016-07-03T06:07:43.563Z,34.44
2016-07-03T06:08:43.585Z,34.52
2016-07-03T06:09:45.089Z,34.56
2016-07-03T06:10:45.158Z,34.59
2016-07-03T06:11:45.237Z,34.69
2016-07-03T06:12:43.651Z,34.87
2016-07-03T06:13:44.966Z,34.94
2016-07-03T06:14:43.681Z,34.92
2016-07-03T06:15:44.291Z,34.96
2016-07-03T06:16:43.706Z,35.15
2016-07-03T06:17:43.722Z,35.23
2016-07-03T06:19:43.971Z,35.28
2016-07-03T06:20:46.345Z,35.21
2016-07-03T06:21:43.790Z,34.91
2016-07-03T06:22:43.807Z,34.75
2016-07-03T06:23:43.820Z,34.84
2016-07-03T06:24:43.845Z,34.91
2016-07-03T06:25:43.866Z,34.97
2016-07-03T06:26:43.871Z,34.94
2016-07-03T06:27:43.900Z,35.04
2016-07-03T06:28:43.913Z,35.16
2016-07-03T06:29:43.927Z,35.31
2016-07-03T06:30:43.946Z,35.45
2016-07-03T06:31:43.956Z,35.58
2016-07-03T06:32:43.978Z,35.74
2016-07-03T06:33:43.990Z,35.77
2016-07-03T06:34:44.004Z,35.89
2016-07-03T06:35:44.023Z,35.89
2016-07-03T06:36:44.048Z,36.01
2016-07-03T06:37:44.060Z,36.08
2016-07-03T06:38:44.078Z,35.99
2016-07-03T06:39:44.091Z,36.12
2016-07-03T06:40:44.110Z,36.15
2016-07-03T06:41:44.129Z,36.22
2016-07-03T06:42:44.159Z,36.35
2016-07-03T06:43:44.170Z,36.65
2016-07-03T06:44:44.186Z,36.73
2016-07-03T06:45:44.205Z,36.59
2016-07-03T06:46:44.814Z,36.62
2016-07-03T06:47:44.241Z,36.65
2016-07-03T06:48:44.264Z,36.59
2016-07-03T06:49:44.275Z,36.65
2016-07-03T06:50:44.296Z,36.68
2016-07-03T06:51:44.320Z,36.8
2016-07-03T06:52:44.334Z,36.53
2016-07-03T06:53:44.350Z,36.17
2016-07-03T06:54:44.368Z,35.97
2016-07-03T06:55:44.386Z,35.92
2016-07-03T06:56:44.410Z,36.01
2016-07-03T06:57:44.429Z,35.85
2016-07-03T06:58:44.448Z,35.82
2016-07-03T06:59:44.463Z,35.59
2016-07-03T07:00:44.492Z,35.48
2016-07-03T07:01:44.958Z,35.62
2016-07-03T07:02:44.625Z,35.7
2016-07-03T07:04:44.612Z,36.2
2016-07-03T07:05:45.628Z,36.37
2016-07-03T07:06:44.605Z,36.64
2016-07-03T07:07:44.618Z,36.91
2016-07-03T07:08:44.638Z,37.15
2016-07-03T07:09:44.660Z,37.28
2016-07-03T07:10:44.830Z,37.47
2016-07-03T07:11:45.094Z,37.55
2016-07-03T07:12:45.675Z,37.59
2016-07-03T07:13:44.739Z,37.64
2016-07-03T07:14:45.468Z,37.7
2016-07-03T07:15:44.778Z,37.66
2016-07-03T07:16:44.807Z,37.76
2016-07-03T07:17:44.820Z,37.69
2016-07-03T07:18:44.839Z,37.74
2016-07-03T07:19:44.853Z,37.75
2016-07-03T07:20:44.884Z,37.75
2016-07-03T07:21:44.910Z,37.85
2016-07-03T07:22:44.933Z,38.06
2016-07-03T07:23:44.944Z,38.03
2016-07-03T07:24:44.974Z,37.97
2016-07-03T07:25:44.988Z,38.03
2016-07-03T07:26:44.999Z,38.12
2016-07-03T07:27:45.030Z,38.07
2016-07-03T07:28:47.236Z,37.94
2016-07-03T07:29:46.435Z,37.86
2016-07-03T07:30:47.660Z,37.74
2016-07-03T07:31:45.272Z,37.6
2016-07-03T07:32:45.136Z,37.43
2016-07-03T07:33:46.107Z,37.62
2016-07-03T07:34:45.181Z,37.74
2016-07-03T07:35:45.203Z,37.81
2016-07-03T07:36:45.227Z,37.91
2016-07-03T07:37:46.711Z,38.06
2016-07-03T07:38:46.674Z,38.16
2016-07-03T07:39:46.507Z,38.09
2016-07-03T07:40:45.321Z,38.09
2016-07-03T07:41:45.324Z,37.88
2016-07-03T07:42:45.353Z,37.57
2016-07-03T07:43:45.371Z,37.47
2016-07-03T07:44:45.624Z,37.49
2016-07-03T07:45:45.418Z,37.57
2016-07-03T07:46:45.438Z,37.39
2016-07-03T07:47:45.462Z,37.5
2016-07-03T07:48:45.490Z,37.47
2016-07-03T07:49:45.508Z,37.34
2016-07-03T07:50:45.521Z,37.2
2016-07-03T07:51:45.543Z,37.12
2016-07-03T07:52:45.563Z,37.31
2016-07-03T07:53:45.589Z,37.5
2016-07-03T07:54:45.605Z,37.59
2016-07-03T07:55:45.626Z,37.47
2016-07-03T07:56:45.639Z,37.39
2016-07-03T07:57:45.663Z,37.24
2016-07-03T07:58:45.694Z,36.99
2016-07-03T07:59:45.708Z,36.66
2016-07-03T08:00:45.730Z,36.31
2016-07-03T08:01:45.749Z,36.17
2016-07-03T08:02:45.769Z,36.03
2016-07-03T08:03:45.785Z,36.25
2016-07-03T08:04:45.807Z,36.39
2016-07-03T08:05:45.824Z,36.54
2016-07-03T08:06:45.843Z,36.83
2016-07-03T08:07:45.850Z,36.8
2016-07-03T08:08:45.882Z,36.91
2016-07-03T08:09:45.897Z,37.06
2016-07-03T08:10:45.923Z,37.13
2016-07-03T08:11:45.941Z,37.17
2016-07-03T08:12:45.965Z,37.12
2016-07-03T08:13:45.984Z,37.1
2016-07-03T08:14:46.006Z,37.1
2016-07-03T08:15:46.024Z,36.98
2016-07-03T08:16:46.052Z,36.98
2016-07-03T08:17:46.065Z,36.8
2016-07-03T08:18:46.085Z,36.9
2016-07-03T08:20:00.999Z,36.8
2016-07-03T08:20:46.974Z,36.78
2016-07-03T08:21:46.149Z,36.59
2016-07-03T08:22:46.167Z,36.46
2016-07-03T08:23:46.188Z,36.46
2016-07-03T08:24:46.610Z,36.54
2016-07-03T08:25:46.826Z,36.75
2016-07-03T08:26:46.346Z,36.76
2016-07-03T08:27:46.265Z,36.64
2016-07-03T08:30:01.204Z,36.72
2016-07-03T08:30:47.135Z,36.78
2016-07-03T08:31:46.353Z,36.54
2016-07-03T08:32:46.372Z,36.34
2016-07-03T08:33:47.399Z,36.41
2016-07-03T08:34:46.419Z,36.51
2016-07-03T08:35:46.432Z,36.23
2016-07-03T08:36:46.452Z,36.09
2016-07-03T08:37:46.472Z,35.99
2016-07-03T08:38:46.490Z,35.81
2016-07-03T08:39:46.510Z,35.43
2016-07-03T08:40:46.527Z,35.23
2016-07-03T08:41:46.551Z,34.91
2016-07-03T08:42:46.559Z,34.46
2016-07-03T08:43:46.574Z,34.24
2016-07-03T08:44:46.583Z,33.75
2016-07-03T08:45:46.615Z,33.21
2016-07-03T08:47:47.246Z,32.14
2016-07-03T08:48:47.294Z,31.88
2016-07-03T08:49:46.679Z,31.66
2016-07-03T08:50:47.002Z,31.68
2016-07-03T08:51:46.701Z,31.68
2016-07-03T08:52:46.718Z,31.53
2016-07-03T08:53:46.806Z,31.43
2016-07-03T08:54:46.832Z,31.17
2016-07-03T08:55:47.526Z,31.13
2016-07-03T08:57:48.249Z,31.17
2016-07-03T08:58:47.821Z,31.12
2016-07-03T08:59:46.990Z,31.04
2016-07-03T09:00:47.216Z,30.92
2016-07-03T09:01:46.952Z,30.72
2016-07-03T09:02:46.855Z,30.82
2016-07-03T09:03:46.865Z,30.62
2016-07-03T09:04:46.889Z,30.45
2016-07-03T09:05:46.900Z,30.24
2016-07-03T09:06:46.908Z,29.97
2016-07-03T09:07:46.919Z,29.8
2016-07-03T09:08:46.934Z,29.68
2016-07-03T09:09:46.941Z,29.58
2016-07-03T09:10:46.972Z,29.43
2016-07-03T09:11:46.970Z,29.23
2016-07-03T09:12:46.986Z,29.11
2016-07-03T09:13:46.991Z,28.83
2016-07-03T09:14:47.014Z,28.77
2016-07-03T09:15:47.020Z,28.61
2016-07-03T09:16:47.041Z,28.44
2016-07-03T09:17:47.039Z,28.46
2016-07-03T09:18:47.050Z,28.25
2016-07-03T09:19:47.060Z,28.09
2016-07-03T09:20:47.082Z,27.93
2016-07-03T09:21:47.074Z,27.78
2016-07-03T09:22:47.081Z,27.77
2016-07-03T09:23:47.099Z,27.69
2016-07-03T09:24:47.105Z,27.65
2016-07-03T09:25:47.119Z,27.54
2016-07-03T09:26:47.150Z,27.47
2016-07-03T09:27:47.139Z,27.29
2016-07-03T09:28:47.142Z,27.31
2016-07-03T09:29:47.161Z,27.12
2016-07-03T09:30:47.167Z,27.03
2016-07-03T09:31:47.176Z,27.06
2016-07-03T09:32:47.190Z,26.8
2016-07-03T09:33:47.197Z,26.81
2016-07-03T09:34:47.190Z,26.72
2016-07-03T09:35:47.212Z,26.67
2016-07-03T09:36:47.221Z,26.66
2016-07-03T09:37:47.232Z,26.72
2016-07-03T09:38:47.743Z,26.57
2016-07-03T09:40:02.545Z,26.44
2016-07-03T09:40:47.756Z,26.36
2016-07-03T09:41:47.622Z,26.35
2016-07-03T09:42:47.268Z,26.3
2016-07-03T09:43:47.286Z,26.25
2016-07-03T09:44:47.291Z,26.23
2016-07-03T09:45:47.302Z,26.29
2016-07-03T09:46:47.297Z,26.25
2016-07-03T09:47:48.361Z,26.17
2016-07-03T09:48:47.571Z,26.09
2016-07-03T09:49:47.416Z,26.06
2016-07-03T09:50:47.879Z,26.17
2016-07-03T09:51:47.942Z,26.2
2016-07-03T09:52:47.547Z,26.32
2016-07-03T09:53:47.357Z,26.3
2016-07-03T09:54:47.353Z,26.45
2016-07-03T09:55:47.364Z,26.62
2016-07-03T09:56:47.374Z,26.58
2016-07-03T09:57:47.386Z,26.69
2016-07-03T09:58:47.383Z,26.66
2016-07-03T09:59:47.400Z,26.62
2016-07-03T10:00:47.411Z,26.6
2016-07-03T10:01:47.417Z,26.57
2016-07-03T10:02:47.432Z,26.66
2016-07-03T10:03:47.426Z,26.81
2016-07-03T10:04:48.721Z,26.92
2016-07-03T10:05:50.420Z,27.02
2016-07-03T10:06:48.179Z,27.02
2016-07-03T10:07:48.051Z,26.97
2016-07-03T10:08:47.470Z,26.87
2016-07-03T10:09:47.871Z,26.72
2016-07-03T10:10:47.870Z,26.54
2016-07-03T10:11:47.499Z,26.54
2016-07-03T10:12:47.496Z,26.36
2016-07-03T10:13:49.009Z,26.28
2016-07-03T10:14:48.161Z,26.12
2016-07-03T10:15:48.817Z,26.09
2016-07-03T10:16:47.530Z,26.09
2016-07-03T10:17:49.385Z,26.2
2016-07-03T10:18:48.140Z,26.36
2016-07-03T10:19:47.552Z,26.36
2016-07-03T10:20:47.557Z,26.43
2016-07-03T10:21:47.586Z,26.55
2016-07-03T10:22:47.572Z,26.73
2016-07-03T10:23:47.581Z,26.84
2016-07-03T10:24:47.593Z,27.03
2016-07-03T10:25:47.602Z,27
2016-07-03T10:26:47.613Z,27
2016-07-03T10:27:47.615Z,27
2016-07-03T10:28:47.618Z,27.06
2016-07-03T10:29:47.627Z,26.87
2016-07-03T10:30:47.638Z,26.84
2016-07-03T10:31:47.640Z,26.89
2016-07-03T10:32:48.251Z,26.99
2016-07-03T10:33:47.666Z,27.04
2016-07-03T10:34:47.666Z,27.09
2016-07-03T10:35:47.672Z,27.28
2016-07-03T10:36:47.682Z,27.31
2016-07-03T10:37:47.697Z,27.41
2016-07-03T10:38:47.696Z,27.6
2016-07-03T10:39:47.695Z,27.65
2016-07-03T10:40:47.706Z,27.49
2016-07-03T10:41:47.721Z,27.44
2016-07-03T10:42:47.724Z,27.32
2016-07-03T10:43:47.735Z,27.21
2016-07-03T10:44:47.752Z,27.06
2016-07-03T10:45:47.760Z,27
2016-07-03T10:46:47.757Z,27.03
2016-07-03T10:47:47.764Z,26.92
2016-07-03T10:48:47.773Z,26.81
2016-07-03T10:49:47.766Z,26.63
2016-07-03T10:50:47.774Z,26.6
2016-07-03T10:51:47.791Z,26.39
2016-07-03T10:52:47.784Z,26.37
2016-07-03T10:53:47.796Z,26.23
2016-07-03T10:54:47.808Z,26.25
2016-07-03T10:55:47.815Z,26.12
2016-07-03T10:56:48.323Z,26.07
2016-07-03T10:57:48.584Z,25.99
2016-07-03T10:59:47.843Z,25.88
2016-07-03T11:00:48.200Z,25.72
2016-07-03T11:01:47.853Z,25.75
2016-07-03T11:02:47.870Z,25.82
2016-07-03T11:03:47.873Z,25.73
2016-07-03T11:04:47.876Z,25.75
2016-07-03T11:07:03.086Z,25.69
2016-07-03T11:07:48.565Z,25.7
2016-07-03T11:08:47.906Z,25.65
2016-07-03T11:09:48.712Z,25.65
2016-07-03T11:10:47.913Z,25.72
2016-07-03T11:11:48.222Z,25.85
2016-07-03T11:12:47.927Z,25.87
2016-07-03T11:13:47.935Z,25.77
2016-07-03T11:14:47.939Z,25.83
2016-07-03T11:15:47.946Z,25.82
2016-07-03T11:16:47.956Z,25.79
2016-07-03T11:17:47.967Z,25.62
2016-07-03T11:18:47.966Z,25.64
2016-07-03T11:19:47.970Z,25.57
2016-07-03T11:20:47.977Z,25.57
2016-07-03T11:21:47.984Z,25.61
2016-07-03T11:22:48.977Z,25.65
2016-07-03T11:24:48.840Z,25.67
2016-07-03T11:25:49.713Z,25.67
2016-07-03T11:26:48.006Z,25.73
2016-07-03T11:27:48.591Z,25.72
2016-07-03T11:28:48.029Z,25.69
2016-07-03T11:29:48.031Z,25.77
2016-07-03T11:30:48.043Z,25.73
2016-07-03T11:31:48.039Z,25.72
2016-07-03T11:32:49.550Z,25.67
2016-07-03T11:33:49.620Z,25.69
2016-07-03T11:34:49.008Z,25.65
2016-07-03T11:35:49.144Z,25.61
2016-07-03T11:36:48.939Z,25.55
2016-07-03T11:37:48.320Z,25.54
2016-07-03T11:38:48.092Z,25.46
2016-07-03T11:39:48.095Z,25.35
2016-07-03T11:40:48.111Z,25.25
2016-07-03T11:41:48.116Z,25.21
2016-07-03T11:42:48.117Z,25.14
2016-07-03T11:43:48.115Z,25.09
2016-07-03T11:44:48.132Z,25.1
2016-07-03T11:45:48.126Z,25.08
2016-07-03T11:46:48.134Z,24.99
2016-07-03T11:47:48.150Z,24.85
2016-07-03T11:48:48.146Z,24.85
2016-07-03T11:49:48.151Z,24.87
2016-07-03T11:50:48.173Z,24.81
2016-07-03T11:51:48.162Z,24.83
2016-07-03T11:52:48.175Z,24.78
2016-07-03T11:53:48.169Z,24.83
2016-07-03T11:54:48.185Z,24.88
2016-07-03T11:55:48.187Z,24.87
2016-07-03T11:56:48.196Z,24.84
2016-07-03T11:57:48.201Z,24.87
2016-07-03T11:58:48.205Z,24.71
2016-07-03T11:59:48.211Z,24.58
2016-07-03T12:00:48.225Z,24.64
2016-07-03T12:01:48.223Z,24.62
2016-07-03T12:02:48.222Z,24.67
2016-07-03T12:03:48.235Z,24.71
2016-07-03T12:04:48.241Z,24.81
2016-07-03T12:05:48.243Z,24.83
2016-07-03T12:06:48.245Z,24.96
2016-07-03T12:07:48.252Z,25
2016-07-03T12:08:48.260Z,24.99
2016-07-03T12:09:48.361Z,24.96
2016-07-03T12:10:48.264Z,24.95
2016-07-03T12:11:48.274Z,24.96
2016-07-03T12:12:48.277Z,25.03
2016-07-03T12:13:48.282Z,24.93
2016-07-03T12:14:48.590Z,24.96
2016-07-03T12:15:48.745Z,24.93
2016-07-03T12:16:48.957Z,24.96
2016-07-03T12:17:49.650Z,24.96
2016-07-03T12:18:48.408Z,24.98
2016-07-03T12:20:03.210Z,24.98
2016-07-03T12:20:48.319Z,24.98
2016-07-03T12:21:48.315Z,24.99
2016-07-03T12:22:48.334Z,24.95
2016-07-03T12:23:49.032Z,24.91
2016-07-03T12:25:03.233Z,24.78
2016-07-03T12:25:49.241Z,24.81
2016-07-03T12:26:49.307Z,24.76
2016-07-03T12:27:48.610Z,24.69
2016-07-03T12:28:48.359Z,24.73
2016-07-03T12:29:48.369Z,24.71
2016-07-03T12:30:48.372Z,24.69
2016-07-03T12:31:48.374Z,24.77
2016-07-03T12:32:48.381Z,24.67
2016-07-03T12:33:48.383Z,24.77
2016-07-03T12:34:48.402Z,24.67
2016-07-03T12:35:48.397Z,24.49
2016-07-03T12:36:48.403Z,24.64
2016-07-03T12:37:48.402Z,24.55
2016-07-03T12:38:48.416Z,24.53
2016-07-03T12:39:48.415Z,24.5
2016-07-03T12:40:48.429Z,24.6
2016-07-03T12:41:49.217Z,24.67
2016-07-03T12:42:49.305Z,24.73
2016-07-03T12:43:51.149Z,24.87
2016-07-03T12:44:49.443Z,24.95
2016-07-03T12:45:49.639Z,25.03
2016-07-03T12:46:48.846Z,25.13
2016-07-03T12:47:48.465Z,25.25
2016-07-03T12:48:48.465Z,25.21
2016-07-03T12:49:48.468Z,25.32
2016-07-03T12:50:50.045Z,25.35
2016-07-03T12:51:49.657Z,25.32
2016-07-03T12:52:50.199Z,25.42
2016-07-03T12:53:49.148Z,25.39
2016-07-03T12:54:49.921Z,25.32
2016-07-03T12:55:48.508Z,25.39
2016-07-03T12:56:48.950Z,25.32
2016-07-03T12:57:48.516Z,25.35
2016-07-03T12:58:48.523Z,25.35
2016-07-03T12:59:48.529Z,25.14
2016-07-03T13:00:48.537Z,25.06
2016-07-03T13:01:48.545Z,24.96
2016-07-03T13:02:48.550Z,24.91
2016-07-03T13:03:48.549Z,24.88
2016-07-03T13:04:48.552Z,24.8
2016-07-03T13:05:48.560Z,24.88
2016-07-03T13:06:48.561Z,24.68
2016-07-03T13:07:48.564Z,24.67
2016-07-03T13:08:48.573Z,24.58